sensor_id;sensor_type;location;lat;lon;timestamp;temperature;humidity
48978;DHT22;34793;48.940;2.618;2023-02-11T00:00:56;11.80;71.30
48978;DHT22;34793;48.940;2.618;2023-02-11T00:03:22;11.90;71.10
48978;DHT22;34793;48.940;2.618;2023-02-11T00:05:57;11.80;70.80
48978;DHT22;34793;48.940;2.618;2023-02-11T00:08:23;11.90;70.50
48978;DHT22;34793;48.940;2.618;2023-02-11T00:10:52;11.70;70.90
48978;DHT22;34793;48.940;2.618;2023-02-11T00:13:18;11.70;70.50
48978;DHT22;34793;48.940;2.618;2023-02-11T00:15:43;11.70;70.90
48978;DHT22;34793;48.940;2.618;2023-02-11T00:18:09;11.70;71.40
48978;DHT22;34793;48.940;2.618;2023-02-11T00:20:34;11.60;71.50
48978;DHT22;34793;48.940;2.618;2023-02-11T00:23:02;11.60;71.00
48978;DHT22;34793;48.940;2.618;2023-02-11T00:25:28;11.50;71.80
48978;DHT22;34793;48.940;2.618;2023-02-11T00:27:53;11.50;71.20
48978;DHT22;34793;48.940;2.618;2023-02-11T00:30:18;11.60;71.10
48978;DHT22;34793;48.940;2.618;2023-02-11T00:32:44;11.60;71.00
48978;DHT22;34793;48.940;2.618;2023-02-11T00:35:10;11.50;71.30
48978;DHT22;34793;48.940;2.618;2023-02-11T00:37:35;11.70;71.10
48978;DHT22;34793;48.940;2.618;2023-02-11T00:40:02;11.60;70.90
48978;DHT22;34793;48.940;2.618;2023-02-11T00:42:27;11.60;70.90
48978;DHT22;34793;48.940;2.618;2023-02-11T00:44:53;11.70;70.60
48978;DHT22;34793;48.940;2.618;2023-02-11T00:47:18;11.70;71.10
48978;DHT22;34793;48.940;2.618;2023-02-11T00:49:44;11.50;71.30
48978;DHT22;34793;48.940;2.618;2023-02-11T00:52:09;11.60;71.10
48978;DHT22;34793;48.940;2.618;2023-02-11T00:54:35;11.70;71.00
48978;DHT22;34793;48.940;2.618;2023-02-11T00:57:00;11.70;70.80
48978;DHT22;34793;48.940;2.618;2023-02-11T00:59:26;11.70;71.10
48978;DHT22;34793;48.940;2.618;2023-02-11T01:01:51;11.70;70.80
48978;DHT22;34793;48.940;2.618;2023-02-11T01:04:17;11.60;70.90
48978;DHT22;34793;48.940;2.618;2023-02-11T01:06:42;11.50;71.10
48978;DHT22;34793;48.940;2.618;2023-02-11T01:09:08;11.50;71.20
48978;DHT22;34793;48.940;2.618;2023-02-11T01:11:33;11.50;71.30
48978;DHT22;34793;48.940;2.618;2023-02-11T01:13:59;11.60;70.90
48978;DHT22;34793;48.940;2.618;2023-02-11T01:16:24;11.60;70.80
48978;DHT22;34793;48.940;2.618;2023-02-11T01:18:50;11.50;71.10
48978;DHT22;34793;48.940;2.618;2023-02-11T01:21:15;11.40;71.20
48978;DHT22;34793;48.940;2.618;2023-02-11T01:23:41;11.50;70.90
48978;DHT22;34793;48.940;2.618;2023-02-11T01:26:06;11.50;70.80
48978;DHT22;34793;48.940;2.618;2023-02-11T01:28:32;11.40;71.20
48978;DHT22;34793;48.940;2.618;2023-02-11T01:30:58;11.30;71.30
48978;DHT22;34793;48.940;2.618;2023-02-11T01:33:24;11.20;71.30
48978;DHT22;34793;48.940;2.618;2023-02-11T01:35:50;11.20;71.20
48978;DHT22;34793;48.940;2.618;2023-02-11T01:38:20;11.10;71.30
48978;DHT22;34793;48.940;2.618;2023-02-11T01:41:05;11.00;71.20
48978;DHT22;34793;48.940;2.618;2023-02-11T01:43:34;11.00;71.20
48978;DHT22;34793;48.940;2.618;2023-02-11T01:48:29;11.00;70.70
48978;DHT22;34793;48.940;2.618;2023-02-11T01:50:58;10.70;72.00
48978;DHT22;34793;48.940;2.618;2023-02-11T01:53:24;10.50;71.80
48978;DHT22;34793;48.940;2.618;2023-02-11T01:56:08;10.50;71.60
48978;DHT22;34793;48.940;2.618;2023-02-11T01:58:53;10.70;70.70
48978;DHT22;34793;48.940;2.618;2023-02-11T02:01:21;10.80;70.20
48978;DHT22;34793;48.940;2.618;2023-02-11T02:03:48;10.90;69.70
48978;DHT22;34793;48.940;2.618;2023-02-11T02:06:18;10.90;70.50
48978;DHT22;34793;48.940;2.618;2023-02-11T02:08:51;10.80;70.00
48978;DHT22;34793;48.940;2.618;2023-02-11T02:11:17;10.70;70.20
48978;DHT22;34793;48.940;2.618;2023-02-11T02:13:43;10.80;69.80
48978;DHT22;34793;48.940;2.618;2023-02-11T02:16:12;10.80;69.80
48978;DHT22;34793;48.940;2.618;2023-02-11T02:23:34;10.90;69.50
48978;DHT22;34793;48.940;2.618;2023-02-11T02:34:05;10.60;69.70
48978;DHT22;34793;48.940;2.618;2023-02-11T02:36:36;10.60;69.80
48978;DHT22;34793;48.940;2.618;2023-02-11T02:39:07;10.50;69.90
48978;DHT22;34793;48.940;2.618;2023-02-11T02:41:34;10.40;70.10
48978;DHT22;34793;48.940;2.618;2023-02-11T02:44:01;10.30;70.40
48978;DHT22;34793;48.940;2.618;2023-02-11T02:46:28;10.40;70.20
48978;DHT22;34793;48.940;2.618;2023-02-11T02:48:55;10.30;70.70
48978;DHT22;34793;48.940;2.618;2023-02-11T02:56:37;10.40;70.20
48978;DHT22;34793;48.940;2.618;2023-02-11T03:04:00;10.40;70.00
48978;DHT22;34793;48.940;2.618;2023-02-11T03:06:29;10.40;70.20
48978;DHT22;34793;48.940;2.618;2023-02-11T03:09:06;10.40;70.30
48978;DHT22;34793;48.940;2.618;2023-02-11T03:11:33;10.20;71.00
48978;DHT22;34793;48.940;2.618;2023-02-11T03:14:00;10.00;71.30
48978;DHT22;34793;48.940;2.618;2023-02-11T03:16:26;9.90;72.20
48978;DHT22;34793;48.940;2.618;2023-02-11T03:18:56;9.80;72.10
48978;DHT22;34793;48.940;2.618;2023-02-11T03:21:23;10.10;71.40
48978;DHT22;34793;48.940;2.618;2023-02-11T03:23:53;10.20;70.90
48978;DHT22;34793;48.940;2.618;2023-02-11T03:26:32;10.40;70.30
48978;DHT22;34793;48.940;2.618;2023-02-11T03:29:02;10.40;70.10
48978;DHT22;34793;48.940;2.618;2023-02-11T03:31:46;10.30;70.60
48978;DHT22;34793;48.940;2.618;2023-02-11T03:39:30;10.40;69.80
48978;DHT22;34793;48.940;2.618;2023-02-11T03:41:57;10.30;70.30
48978;DHT22;34793;48.940;2.618;2023-02-11T03:44:24;10.20;70.00
48978;DHT22;34793;48.940;2.618;2023-02-11T03:46:51;10.30;70.00
48978;DHT22;34793;48.940;2.618;2023-02-11T03:49:19;10.30;69.80
48978;DHT22;34793;48.940;2.618;2023-02-11T03:51:46;10.20;69.80
48978;DHT22;34793;48.940;2.618;2023-02-11T03:54:13;10.20;70.20
48978;DHT22;34793;48.940;2.618;2023-02-11T03:56:50;10.20;70.30
48978;DHT22;34793;48.940;2.618;2023-02-11T03:59:16;10.20;70.30
48978;DHT22;34793;48.940;2.618;2023-02-11T04:01:42;10.30;69.80
48978;DHT22;34793;48.940;2.618;2023-02-11T04:04:07;10.30;69.70
48978;DHT22;34793;48.940;2.618;2023-02-11T04:06:33;10.40;69.50
48978;DHT22;34793;48.940;2.618;2023-02-11T04:08:58;10.40;69.20
48978;DHT22;34793;48.940;2.618;2023-02-11T04:11:24;10.30;69.20
48978;DHT22;34793;48.940;2.618;2023-02-11T04:13:49;10.20;70.20
48978;DHT22;34793;48.940;2.618;2023-02-11T04:16:15;10.10;69.50
48978;DHT22;34793;48.940;2.618;2023-02-11T04:18:40;10.10;69.50
48978;DHT22;34793;48.940;2.618;2023-02-11T04:21:05;10.00;69.60
48978;DHT22;34793;48.940;2.618;2023-02-11T04:23:31;10.20;69.00
48978;DHT22;34793;48.940;2.618;2023-02-11T04:25:57;10.10;69.30
48978;DHT22;34793;48.940;2.618;2023-02-11T04:28:23;9.90;69.70
48978;DHT22;34793;48.940;2.618;2023-02-11T04:30:49;9.90;69.70
48978;DHT22;34793;48.940;2.618;2023-02-11T04:33:15;9.90;69.50
48978;DHT22;34793;48.940;2.618;2023-02-11T04:35:40;9.90;69.40
48978;DHT22;34793;48.940;2.618;2023-02-11T04:38:06;10.00;69.20
48978;DHT22;34793;48.940;2.618;2023-02-11T04:40:31;10.40;69.10
48978;DHT22;34793;48.940;2.618;2023-02-11T04:42:57;10.00;69.00
48978;DHT22;34793;48.940;2.618;2023-02-11T04:45:22;10.00;68.70
48978;DHT22;34793;48.940;2.618;2023-02-11T04:47:48;9.90;68.80
48978;DHT22;34793;48.940;2.618;2023-02-11T04:50:13;9.90;68.60
48978;DHT22;34793;48.940;2.618;2023-02-11T04:52:39;10.00;68.40
48978;DHT22;34793;48.940;2.618;2023-02-11T04:55:04;9.80;68.80
48978;DHT22;34793;48.940;2.618;2023-02-11T04:57:30;9.70;68.90
48978;DHT22;34793;48.940;2.618;2023-02-11T04:59:55;9.80;68.90
48978;DHT22;34793;48.940;2.618;2023-02-11T05:02:21;9.80;68.70
48978;DHT22;34793;48.940;2.618;2023-02-11T05:04:46;9.60;69.20
48978;DHT22;34793;48.940;2.618;2023-02-11T05:07:12;9.60;69.30
48978;DHT22;34793;48.940;2.618;2023-02-11T05:09:37;9.50;69.30
48978;DHT22;34793;48.940;2.618;2023-02-11T05:12:03;9.50;69.10
48978;DHT22;34793;48.940;2.618;2023-02-11T05:14:28;9.50;69.60
48978;DHT22;34793;48.940;2.618;2023-02-11T05:16:54;9.50;69.20
48978;DHT22;34793;48.940;2.618;2023-02-11T05:19:19;9.40;69.50
48978;DHT22;34793;48.940;2.618;2023-02-11T05:21:45;10.20;70.00
48978;DHT22;34793;48.940;2.618;2023-02-11T05:24:10;9.50;69.40
48978;DHT22;34793;48.940;2.618;2023-02-11T05:26:36;9.40;69.50
48978;DHT22;34793;48.940;2.618;2023-02-11T05:29:01;9.30;69.00
48978;DHT22;34793;48.940;2.618;2023-02-11T05:31:28;9.20;69.20
48978;DHT22;34793;48.940;2.618;2023-02-11T05:33:54;9.30;69.40
48978;DHT22;34793;48.940;2.618;2023-02-11T05:36:19;9.30;69.50
48978;DHT22;34793;48.940;2.618;2023-02-11T05:38:45;9.20;69.50
48978;DHT22;34793;48.940;2.618;2023-02-11T05:41:10;9.10;70.20
48978;DHT22;34793;48.940;2.618;2023-02-11T05:43:36;9.00;70.00
48978;DHT22;34793;48.940;2.618;2023-02-11T05:46:02;8.90;70.40
48978;DHT22;34793;48.940;2.618;2023-02-11T05:48:28;8.70;71.00
48978;DHT22;34793;48.940;2.618;2023-02-11T05:50:54;8.80;70.60
48978;DHT22;34793;48.940;2.618;2023-02-11T05:53:19;8.80;70.50
48978;DHT22;34793;48.940;2.618;2023-02-11T05:55:44;8.80;70.30
48978;DHT22;34793;48.940;2.618;2023-02-11T05:58:10;8.80;70.30
48978;DHT22;34793;48.940;2.618;2023-02-11T06:00:36;9.00;69.70
48978;DHT22;34793;48.940;2.618;2023-02-11T06:03:01;9.00;69.70
48978;DHT22;34793;48.940;2.618;2023-02-11T06:05:28;9.10;69.20
48978;DHT22;34793;48.940;2.618;2023-02-11T06:07:54;9.70;69.80
48978;DHT22;34793;48.940;2.618;2023-02-11T06:10:19;9.10;69.20
48978;DHT22;34793;48.940;2.618;2023-02-11T06:12:45;9.10;69.10
48978;DHT22;34793;48.940;2.618;2023-02-11T06:15:10;9.10;69.10
48978;DHT22;34793;48.940;2.618;2023-02-11T06:17:36;9.00;69.60
48978;DHT22;34793;48.940;2.618;2023-02-11T06:20:02;9.00;69.60
48978;DHT22;34793;48.940;2.618;2023-02-11T06:22:28;9.00;69.20
48978;DHT22;34793;48.940;2.618;2023-02-11T06:24:54;9.10;68.90
48978;DHT22;34793;48.940;2.618;2023-02-11T06:27:19;9.00;68.90
48978;DHT22;34793;48.940;2.618;2023-02-11T06:29:45;8.80;70.10
48978;DHT22;34793;48.940;2.618;2023-02-11T06:32:10;8.50;70.60
48978;DHT22;34793;48.940;2.618;2023-02-11T06:34:36;8.60;70.30
48978;DHT22;34793;48.940;2.618;2023-02-11T06:37:01;8.90;69.60
48978;DHT22;34793;48.940;2.618;2023-02-11T06:39:27;8.80;69.70
48978;DHT22;34793;48.940;2.618;2023-02-11T06:41:53;8.80;69.40
48978;DHT22;34793;48.940;2.618;2023-02-11T06:44:18;8.80;69.40
48978;DHT22;34793;48.940;2.618;2023-02-11T06:46:44;8.70;69.80
48978;DHT22;34793;48.940;2.618;2023-02-11T06:49:09;8.80;69.50
48978;DHT22;34793;48.940;2.618;2023-02-11T06:51:35;8.70;70.20
48978;DHT22;34793;48.940;2.618;2023-02-11T06:54:01;8.60;70.40
48978;DHT22;34793;48.940;2.618;2023-02-11T06:56:26;8.70;70.00
48978;DHT22;34793;48.940;2.618;2023-02-11T07:01:42;8.70;70.20
48978;DHT22;34793;48.940;2.618;2023-02-11T07:04:08;8.70;69.90
48978;DHT22;34793;48.940;2.618;2023-02-11T07:06:33;8.80;69.90
48978;DHT22;34793;48.940;2.618;2023-02-11T07:08:59;8.70;69.40
48978;DHT22;34793;48.940;2.618;2023-02-11T07:11:25;8.80;69.50
48978;DHT22;34793;48.940;2.618;2023-02-11T07:13:51;8.70;69.10
48978;DHT22;34793;48.940;2.618;2023-02-11T07:16:18;8.70;69.20
48978;DHT22;34793;48.940;2.618;2023-02-11T07:18:45;8.70;69.90
48978;DHT22;34793;48.940;2.618;2023-02-11T07:21:11;8.70;69.80
48978;DHT22;34793;48.940;2.618;2023-02-11T07:23:37;8.70;69.70
48978;DHT22;34793;48.940;2.618;2023-02-11T07:26:03;8.70;69.50
48978;DHT22;34793;48.940;2.618;2023-02-11T07:28:28;8.60;70.70
48978;DHT22;34793;48.940;2.618;2023-02-11T07:30:54;8.50;71.10
48978;DHT22;34793;48.940;2.618;2023-02-11T07:33:19;8.60;70.40
48978;DHT22;34793;48.940;2.618;2023-02-11T07:35:45;8.80;69.90
48978;DHT22;34793;48.940;2.618;2023-02-11T07:38:10;8.90;69.70
48978;DHT22;34793;48.940;2.618;2023-02-11T07:40:36;8.60;70.60
48978;DHT22;34793;48.940;2.618;2023-02-11T07:43:01;8.70;70.40
48978;DHT22;34793;48.940;2.618;2023-02-11T07:45:27;8.70;70.70
48978;DHT22;34793;48.940;2.618;2023-02-11T07:47:52;8.70;70.50
48978;DHT22;34793;48.940;2.618;2023-02-11T07:50:18;8.80;70.80
48978;DHT22;34793;48.940;2.618;2023-02-11T07:52:43;8.70;70.70
48978;DHT22;34793;48.940;2.618;2023-02-11T07:55:09;8.90;70.90
48978;DHT22;34793;48.940;2.618;2023-02-11T07:57:35;9.00;71.10
48978;DHT22;34793;48.940;2.618;2023-02-11T08:00:01;9.10;71.10
48978;DHT22;34793;48.940;2.618;2023-02-11T08:02:26;9.00;71.00
48978;DHT22;34793;48.940;2.618;2023-02-11T08:04:52;9.10;71.30
48978;DHT22;34793;48.940;2.618;2023-02-11T08:07:17;9.10;72.20
48978;DHT22;34793;48.940;2.618;2023-02-11T08:09:43;9.10;72.20
48978;DHT22;34793;48.940;2.618;2023-02-11T08:12:09;9.20;71.70
48978;DHT22;34793;48.940;2.618;2023-02-11T08:14:34;9.40;71.70
48978;DHT22;34793;48.940;2.618;2023-02-11T08:17:00;9.40;72.30
48978;DHT22;34793;48.940;2.618;2023-02-11T08:19:25;9.20;74.20
48978;DHT22;34793;48.940;2.618;2023-02-11T08:21:54;9.10;74.10
48978;DHT22;34793;48.940;2.618;2023-02-11T08:24:19;9.30;73.90
48978;DHT22;34793;48.940;2.618;2023-02-11T08:26:45;9.40;73.80
48978;DHT22;34793;48.940;2.618;2023-02-11T08:29:12;9.10;74.80
48978;DHT22;34793;48.940;2.618;2023-02-11T08:31:39;9.20;75.70
48978;DHT22;34793;48.940;2.618;2023-02-11T08:34:04;9.30;75.30
48978;DHT22;34793;48.940;2.618;2023-02-11T08:36:31;9.50;75.40
48978;DHT22;34793;48.940;2.618;2023-02-11T08:38:57;9.40;75.90
48978;DHT22;34793;48.940;2.618;2023-02-11T08:41:30;9.70;75.10
48978;DHT22;34793;48.940;2.618;2023-02-11T08:43:55;9.60;75.50
48978;DHT22;34793;48.940;2.618;2023-02-11T08:46:20;9.60;75.30
48978;DHT22;34793;48.940;2.618;2023-02-11T08:48:46;9.80;75.00
48978;DHT22;34793;48.940;2.618;2023-02-11T08:51:13;9.80;75.20
48978;DHT22;34793;48.940;2.618;2023-02-11T08:53:39;9.80;75.80
48978;DHT22;34793;48.940;2.618;2023-02-11T08:56:04;9.90;75.60
48978;DHT22;34793;48.940;2.618;2023-02-11T08:58:31;10.00;75.20
48978;DHT22;34793;48.940;2.618;2023-02-11T09:00:56;10.10;75.40
48978;DHT22;34793;48.940;2.618;2023-02-11T09:03:22;10.70;76.10
48978;DHT22;34793;48.940;2.618;2023-02-11T09:05:48;10.10;75.90
48978;DHT22;34793;48.940;2.618;2023-02-11T09:08:21;10.00;76.60
48978;DHT22;34793;48.940;2.618;2023-02-11T09:10:46;10.10;76.60
48978;DHT22;34793;48.940;2.618;2023-02-11T09:13:12;10.00;76.60
48978;DHT22;34793;48.940;2.618;2023-02-11T09:15:38;10.20;76.90
48978;DHT22;34793;48.940;2.618;2023-02-11T09:18:03;10.50;77.10
48978;DHT22;34793;48.940;2.618;2023-02-11T09:20:29;10.70;76.30
48978;DHT22;34793;48.940;2.618;2023-02-11T09:22:56;10.70;76.40
48978;DHT22;34793;48.940;2.618;2023-02-11T09:25:22;10.80;76.30
48978;DHT22;34793;48.940;2.618;2023-02-11T09:27:47;10.90;75.90
48978;DHT22;34793;48.940;2.618;2023-02-11T09:30:14;10.90;75.90
48978;DHT22;34793;48.940;2.618;2023-02-11T09:32:39;11.00;76.10
48978;DHT22;34793;48.940;2.618;2023-02-11T09:35:05;10.90;76.20
48978;DHT22;34793;48.940;2.618;2023-02-11T09:37:30;10.70;78.10
48978;DHT22;34793;48.940;2.618;2023-02-11T09:39:56;10.80;77.80
48978;DHT22;34793;48.940;2.618;2023-02-11T09:45:02;11.30;78.00
48978;DHT22;34793;48.940;2.618;2023-02-11T09:47:34;11.60;76.60
48978;DHT22;34793;48.940;2.618;2023-02-11T09:50:04;11.70;76.00
48978;DHT22;34793;48.940;2.618;2023-02-11T09:52:32;11.30;77.50
48978;DHT22;34793;48.940;2.618;2023-02-11T09:55:01;11.20;78.90
48978;DHT22;34793;48.940;2.618;2023-02-11T09:57:31;11.40;77.90
48978;DHT22;34793;48.940;2.618;2023-02-11T09:59:57;11.80;78.40
48978;DHT22;34793;48.940;2.618;2023-02-11T10:10:25;11.80;77.70
48978;DHT22;34793;48.940;2.618;2023-02-11T10:12:57;11.80;78.10
48978;DHT22;34793;48.940;2.618;2023-02-11T10:15:32;11.60;79.30
48978;DHT22;34793;48.940;2.618;2023-02-11T10:18:05;11.50;79.70
48978;DHT22;34793;48.940;2.618;2023-02-11T10:25:40;12.00;79.20
48978;DHT22;34793;48.940;2.618;2023-02-11T10:28:14;12.40;79.50
48978;DHT22;34793;48.940;2.618;2023-02-11T10:30:59;13.00;77.30
48978;DHT22;34793;48.940;2.618;2023-02-11T10:35:54;13.40;77.10
48978;DHT22;34793;48.940;2.618;2023-02-11T10:38:20;13.40;77.30
48978;DHT22;34793;48.940;2.618;2023-02-11T10:40:45;13.50;76.50
48978;DHT22;34793;48.940;2.618;2023-02-11T10:43:15;13.70;77.30
48978;DHT22;34793;48.940;2.618;2023-02-11T10:45:42;14.20;75.40
48978;DHT22;34793;48.940;2.618;2023-02-11T10:51:05;14.80;73.90
48978;DHT22;34793;48.940;2.618;2023-02-11T10:53:31;15.00;74.30
48978;DHT22;34793;48.940;2.618;2023-02-11T10:55:58;14.80;74.90
48978;DHT22;34793;48.940;2.618;2023-02-11T10:58:25;14.70;75.00
48978;DHT22;34793;48.940;2.618;2023-02-11T11:00:53;14.80;74.20
48978;DHT22;34793;48.940;2.618;2023-02-11T11:03:20;14.80;75.50
48978;DHT22;34793;48.940;2.618;2023-02-11T11:05:47;15.10;75.00
48978;DHT22;34793;48.940;2.618;2023-02-11T11:08:12;14.80;75.40
48978;DHT22;34793;48.940;2.618;2023-02-11T11:10:41;14.80;75.60
48978;DHT22;34793;48.940;2.618;2023-02-11T11:13:29;14.50;77.00
48978;DHT22;34793;48.940;2.618;2023-02-11T11:18:37;15.00;76.50
48978;DHT22;34793;48.940;2.618;2023-02-11T11:21:04;15.20;77.20
48978;DHT22;34793;48.940;2.618;2023-02-11T11:23:31;15.50;76.10
48978;DHT22;34793;48.940;2.618;2023-02-11T11:28:28;15.20;77.80
48978;DHT22;34793;48.940;2.618;2023-02-11T11:30:54;15.40;77.80
48978;DHT22;34793;48.940;2.618;2023-02-11T11:33:23;15.60;76.80
48978;DHT22;34793;48.940;2.618;2023-02-11T11:36:24;15.70;76.60
48978;DHT22;34793;48.940;2.618;2023-02-11T11:38:44;15.60;76.60
48978;DHT22;34793;48.940;2.618;2023-02-11T11:41:12;15.60;76.70
48978;DHT22;34793;48.940;2.618;2023-02-11T11:43:38;15.70;77.10
48978;DHT22;34793;48.940;2.618;2023-02-11T11:46:04;15.70;77.20
48978;DHT22;34793;48.940;2.618;2023-02-11T11:48:33;15.80;77.30
48978;DHT22;34793;48.940;2.618;2023-02-11T11:51:03;16.00;77.10
48978;DHT22;34793;48.940;2.618;2023-02-11T11:56:20;16.60;74.80
48978;DHT22;34793;48.940;2.618;2023-02-11T11:58:46;16.70;75.10
48978;DHT22;34793;48.940;2.618;2023-02-11T12:08:41;16.90;74.50
48978;DHT22;34793;48.940;2.618;2023-02-11T12:11:11;17.20;75.30
48978;DHT22;34793;48.940;2.618;2023-02-11T12:13:41;17.10;76.10
48978;DHT22;34793;48.940;2.618;2023-02-11T12:36:38;17.80;71.50
48978;DHT22;34793;48.940;2.618;2023-02-11T12:42:02;17.60;72.10
48978;DHT22;34793;48.940;2.618;2023-02-11T12:47:29;18.00;70.90
48978;DHT22;34793;48.940;2.618;2023-02-11T12:50:01;18.00;70.20
48978;DHT22;34793;48.940;2.618;2023-02-11T12:52:41;18.00;70.50
48978;DHT22;34793;48.940;2.618;2023-02-11T12:57:42;17.50;72.00
48978;DHT22;34793;48.940;2.618;2023-02-11T13:00:13;16.90;74.00
48978;DHT22;34793;48.940;2.618;2023-02-11T13:02:47;17.10;74.40
48978;DHT22;34793;48.940;2.618;2023-02-11T13:10:44;17.50;73.40
48978;DHT22;34793;48.940;2.618;2023-02-11T13:13:17;17.60;72.70
48978;DHT22;34793;48.940;2.618;2023-02-11T13:16:05;17.80;72.50
48978;DHT22;34793;48.940;2.618;2023-02-11T13:18:41;18.00;72.00
48978;DHT22;34793;48.940;2.618;2023-02-11T13:26:17;18.30;70.00
48978;DHT22;34793;48.940;2.618;2023-02-11T13:28:45;18.60;70.60
48978;DHT22;34793;48.940;2.618;2023-02-11T13:31:13;18.20;70.00
48978;DHT22;34793;48.940;2.618;2023-02-11T13:33:41;17.80;70.60
48978;DHT22;34793;48.940;2.618;2023-02-11T13:38:32;17.40;72.00
48978;DHT22;34793;48.940;2.618;2023-02-11T13:43:31;17.70;71.70
48978;DHT22;34793;48.940;2.618;2023-02-11T13:46:07;17.90;72.60
48978;DHT22;34793;48.940;2.618;2023-02-11T13:48:52;17.60;71.80
48978;DHT22;34793;48.940;2.618;2023-02-11T13:51:32;17.50;72.10
48978;DHT22;34793;48.940;2.618;2023-02-11T13:53:58;17.50;71.70
48978;DHT22;34793;48.940;2.618;2023-02-11T13:58:52;17.30;72.50
48978;DHT22;34793;48.940;2.618;2023-02-11T14:04:18;17.20;72.60
48978;DHT22;34793;48.940;2.618;2023-02-11T14:10:29;17.10;73.40
48978;DHT22;34793;48.940;2.618;2023-02-11T14:13:04;16.40;75.10
48978;DHT22;34793;48.940;2.618;2023-02-11T14:15:36;16.90;74.70
48978;DHT22;34793;48.940;2.618;2023-02-11T14:18:20;17.00;73.90
48978;DHT22;34793;48.940;2.618;2023-02-11T14:20:48;17.20;74.00
48978;DHT22;34793;48.940;2.618;2023-02-11T14:23:21;17.20;73.80
48978;DHT22;34793;48.940;2.618;2023-02-11T14:25:51;17.20;73.40
48978;DHT22;34793;48.940;2.618;2023-02-11T14:28:21;17.20;73.40
48978;DHT22;34793;48.940;2.618;2023-02-11T14:36:03;17.60;73.10
48978;DHT22;34793;48.940;2.618;2023-02-11T14:43:40;17.50;71.60
48978;DHT22;34793;48.940;2.618;2023-02-11T14:46:07;17.80;72.10
48978;DHT22;34793;48.940;2.618;2023-02-11T14:48:33;18.00;71.20
48978;DHT22;34793;48.940;2.618;2023-02-11T14:51:19;18.00;72.00
48978;DHT22;34793;48.940;2.618;2023-02-11T14:53:48;18.00;72.00
48978;DHT22;34793;48.940;2.618;2023-02-11T14:56:19;18.00;71.40
48978;DHT22;34793;48.940;2.618;2023-02-11T14:58:45;18.00;71.50
48978;DHT22;34793;48.940;2.618;2023-02-11T15:01:33;18.20;71.90
48978;DHT22;34793;48.940;2.618;2023-02-11T15:03:56;18.00;72.30
48978;DHT22;34793;48.940;2.618;2023-02-11T15:08:56;17.70;72.60
48978;DHT22;34793;48.940;2.618;2023-02-11T15:11:26;17.90;72.30
48978;DHT22;34793;48.940;2.618;2023-02-11T15:13:52;18.00;71.60
48978;DHT22;34793;48.940;2.618;2023-02-11T15:16:19;18.10;72.10
48978;DHT22;34793;48.940;2.618;2023-02-11T15:18:47;17.90;72.20
48978;DHT22;34793;48.940;2.618;2023-02-11T15:21:18;17.70;72.10
48978;DHT22;34793;48.940;2.618;2023-02-11T15:23:53;17.50;72.80
48978;DHT22;34793;48.940;2.618;2023-02-11T15:26:20;17.50;72.50
48978;DHT22;34793;48.940;2.618;2023-02-11T15:28:46;17.40;72.40
48978;DHT22;34793;48.940;2.618;2023-02-11T15:31:17;17.30;72.80
48978;DHT22;34793;48.940;2.618;2023-02-11T15:33:43;17.20;72.80
48978;DHT22;34793;48.940;2.618;2023-02-11T15:36:10;17.20;72.90
48978;DHT22;34793;48.940;2.618;2023-02-11T15:38:35;16.90;73.10
48978;DHT22;34793;48.940;2.618;2023-02-11T15:41:01;17.10;73.20
48978;DHT22;34793;48.940;2.618;2023-02-11T15:46:09;17.30;72.80
48978;DHT22;34793;48.940;2.618;2023-02-11T15:48:36;17.00;73.10
48978;DHT22;34793;48.940;2.618;2023-02-11T15:51:04;17.00;73.00
48978;DHT22;34793;48.940;2.618;2023-02-11T15:53:36;16.90;73.70
48978;DHT22;34793;48.940;2.618;2023-02-11T15:56:13;16.80;73.80
48978;DHT22;34793;48.940;2.618;2023-02-11T15:58:41;17.00;73.70
48978;DHT22;34793;48.940;2.618;2023-02-11T16:01:07;17.00;73.30
48978;DHT22;34793;48.940;2.618;2023-02-11T16:03:33;16.90;73.30
48978;DHT22;34793;48.940;2.618;2023-02-11T16:08:40;16.90;73.50
48978;DHT22;34793;48.940;2.618;2023-02-11T16:11:24;16.90;73.20
48978;DHT22;34793;48.940;2.618;2023-02-11T16:13:50;17.00;73.20
48978;DHT22;34793;48.940;2.618;2023-02-11T16:16:20;17.10;73.00
48978;DHT22;34793;48.940;2.618;2023-02-11T16:18:49;17.10;73.10
48978;DHT22;34793;48.940;2.618;2023-02-11T16:24:20;17.10;73.00
48978;DHT22;34793;48.940;2.618;2023-02-11T16:26:47;17.20;73.00
48978;DHT22;34793;48.940;2.618;2023-02-11T16:29:15;17.30;72.90
48978;DHT22;34793;48.940;2.618;2023-02-11T16:31:44;17.50;72.50
48978;DHT22;34793;48.940;2.618;2023-02-11T16:34:12;17.50;72.30
48978;DHT22;34793;48.940;2.618;2023-02-11T16:36:38;17.60;72.40
48978;DHT22;34793;48.940;2.618;2023-02-11T16:39:03;17.60;72.20
48978;DHT22;34793;48.940;2.618;2023-02-11T16:41:29;17.40;72.80
48978;DHT22;34793;48.940;2.618;2023-02-11T16:43:57;17.50;72.40
48978;DHT22;34793;48.940;2.618;2023-02-11T16:46:23;17.60;72.20
48978;DHT22;34793;48.940;2.618;2023-02-11T16:48:48;17.60;71.80
48978;DHT22;34793;48.940;2.618;2023-02-11T16:51:15;17.40;72.40
48978;DHT22;34793;48.940;2.618;2023-02-11T16:53:40;17.50;72.20
48978;DHT22;34793;48.940;2.618;2023-02-11T16:56:09;17.60;72.00
48978;DHT22;34793;48.940;2.618;2023-02-11T16:58:35;17.70;72.00
48978;DHT22;34793;48.940;2.618;2023-02-11T17:01:01;17.40;72.80
48978;DHT22;34793;48.940;2.618;2023-02-11T17:03:26;17.20;74.10
48978;DHT22;34793;48.940;2.618;2023-02-11T17:05:53;17.00;75.50
48978;DHT22;34793;48.940;2.618;2023-02-11T17:08:18;16.70;75.80
48978;DHT22;34793;48.940;2.618;2023-02-11T17:10:44;16.60;76.20
48978;DHT22;34793;48.940;2.618;2023-02-11T17:13:10;16.70;76.50
48978;DHT22;34793;48.940;2.618;2023-02-11T17:15:35;17.00;75.80
48978;DHT22;34793;48.940;2.618;2023-02-11T17:18:01;17.00;75.50
48978;DHT22;34793;48.940;2.618;2023-02-11T17:20:26;16.60;76.30
48978;DHT22;34793;48.940;2.618;2023-02-11T17:22:52;16.80;76.60
48978;DHT22;34793;48.940;2.618;2023-02-11T17:25:17;17.00;76.00
48978;DHT22;34793;48.940;2.618;2023-02-11T17:27:43;17.00;75.20
48978;DHT22;34793;48.940;2.618;2023-02-11T17:30:08;17.00;75.70
48978;DHT22;34793;48.940;2.618;2023-02-11T17:32:35;16.80;76.20
48978;DHT22;34793;48.940;2.618;2023-02-11T17:35:00;17.00;76.40
48978;DHT22;34793;48.940;2.618;2023-02-11T17:37:26;17.00;75.80
48978;DHT22;34793;48.940;2.618;2023-02-11T17:39:52;16.90;76.60
48978;DHT22;34793;48.940;2.618;2023-02-11T17:42:17;16.70;77.30
48978;DHT22;34793;48.940;2.618;2023-02-11T17:44:43;16.70;77.50
48978;DHT22;34793;48.940;2.618;2023-02-11T17:47:09;16.80;76.80
48978;DHT22;34793;48.940;2.618;2023-02-11T18:22:04;16.90;77.00
48978;DHT22;34793;48.940;2.618;2023-02-11T18:24:29;17.00;76.50
48978;DHT22;34793;48.940;2.618;2023-02-11T18:26:55;17.20;76.10
48978;DHT22;34793;48.940;2.618;2023-02-11T18:29:21;17.20;75.70
48978;DHT22;34793;48.940;2.618;2023-02-11T18:31:46;17.20;75.60
48978;DHT22;34793;48.940;2.618;2023-02-11T18:34:12;17.20;75.60